NWS1004 UUEE-ULLI
Flight info
| Callsign | NWS1004 |
|---|---|
| Flight time | N/A |
| Altitude | 36000 |
| Route | K0828F360 TOKNU3H TOKNU L4 NUDKO T561 ODATI T875 GENPA GENPA1B |
| Aircraft | A321/M-SDE3FGHIRWY/LB1 |
Departure
| Time | 2026-05-01 10:35 |
|---|---|
| Airport | Sheremetyevo International Airport (UUEE) |
Arrival
| Time | N/A |
|---|---|
| Airport | Pulkovo Airport (ULLI) |
| Time | Latitude | Longitude | Altitude | Speed | Heading |
|---|---|---|---|---|---|
| 2026-05-01 09:49 | 55.97794 | 37.41811 | 638 ft | 0 kts | 346° |
| 2026-05-01 10:18 | 55.97792 | 37.41811 | 638 ft | 0 kts | 346° |
| 2026-05-01 10:18 | 55.97785 | 37.41814 | 638 ft | 2 kts | 345° |
| 2026-05-01 10:18 | 55.97770 | 37.41821 | 638 ft | 2 kts | 345° |
| 2026-05-01 10:19 | 55.97756 | 37.41827 | 638 ft | 2 kts | 353° |
| 2026-05-01 10:19 | 55.97741 | 37.41823 | 638 ft | 2 kts | 26° |
| 2026-05-01 10:19 | 55.97729 | 37.41807 | 638 ft | 2 kts | 53° |
| 2026-05-01 10:20 | 55.97722 | 37.41769 | 638 ft | 0 kts | 77° |
| 2026-05-01 10:23 | 55.97725 | 37.41792 | 638 ft | 1 kts | 75° |
| 2026-05-01 10:23 | 55.97728 | 37.41818 | 638 ft | 2 kts | 75° |
| 2026-05-01 10:24 | 55.97740 | 37.41897 | 638 ft | 4 kts | 75° |
| 2026-05-01 10:24 | 55.97768 | 37.42081 | 638 ft | 8 kts | 75° |
| 2026-05-01 10:25 | 55.97802 | 37.42307 | 638 ft | 10 kts | 70° |
| 2026-05-01 10:25 | 55.97861 | 37.42550 | 638 ft | 11 kts | 75° |
| 2026-05-01 10:26 | 55.97881 | 37.42688 | 638 ft | 11 kts | 75° |
| 2026-05-01 10:26 | 55.97903 | 37.42835 | 638 ft | 12 kts | 75° |
| 2026-05-01 10:26 | 55.97949 | 37.43144 | 638 ft | 13 kts | 75° |
| 2026-05-01 10:27 | 55.97997 | 37.43466 | 638 ft | 13 kts | 75° |
| 2026-05-01 10:27 | 55.98046 | 37.43795 | 638 ft | 10 kts | 75° |
| 2026-05-01 10:28 | 55.98059 | 37.43900 | 638 ft | 8 kts | 91° |
| 2026-05-01 10:28 | 55.97961 | 37.44012 | 638 ft | 9 kts | 165° |
| 2026-05-01 10:28 | 55.97916 | 37.44033 | 638 ft | 0 kts | 165° |
| 2026-05-01 10:32 | 55.97888 | 37.44046 | 638 ft | 3 kts | 165° |
| 2026-05-01 10:33 | 55.97826 | 37.44076 | 638 ft | 5 kts | 164° |
| 2026-05-01 10:33 | 55.97781 | 37.44045 | 638 ft | 4 kts | 249° |
| 2026-05-01 10:34 | 55.97777 | 37.44020 | 638 ft | 0 kts | 255° |
| 2026-05-01 10:34 | 55.97774 | 37.44003 | 638 ft | 11 kts | 255° |
| 2026-05-01 10:34 | 55.97687 | 37.43423 | 638 ft | 85 kts | 255° |
| 2026-05-01 10:35 | 55.97199 | 37.40099 | 1008 ft | 165 kts | 256° |
| 2026-05-01 10:35 | 55.96904 | 37.38106 | 1601 ft | 168 kts | 256° |
| 2026-05-01 10:35 | 55.96603 | 37.36100 | 2214 ft | 173 kts | 256° |
| 2026-05-01 10:35 | 55.96274 | 37.34057 | 2700 ft | 176 kts | 256° |
| 2026-05-01 10:36 | 55.95540 | 37.29501 | 3297 ft | 206 kts | 254° |
| 2026-05-01 10:36 | 55.95132 | 37.26950 | 3562 ft | 225 kts | 256° |
| 2026-05-01 10:36 | 55.94691 | 37.24127 | 3875 ft | 244 kts | 255° |
| 2026-05-01 10:37 | 55.94486 | 37.22808 | 4064 ft | 251 kts | 256° |
| 2026-05-01 10:37 | 55.93920 | 37.19237 | 4723 ft | 261 kts | 256° |
| 2026-05-01 10:37 | 55.93427 | 37.16108 | 5428 ft | 265 kts | 256° |
| 2026-05-01 10:38 | 55.92934 | 37.12983 | 6242 ft | 264 kts | 256° |
| 2026-05-01 10:38 | 55.92536 | 37.10473 | 6827 ft | 266 kts | 256° |
| 2026-05-01 10:38 | 55.92030 | 37.07275 | 7428 ft | 274 kts | 256° |
| 2026-05-01 10:38 | 55.91612 | 37.03959 | 8087 ft | 277 kts | 270° |
| 2026-05-01 10:39 | 55.91935 | 37.00673 | 8887 ft | 272 kts | 296° |
| 2026-05-01 10:39 | 55.93053 | 36.97973 | 9542 ft | 272 kts | 320° |
| 2026-05-01 10:39 | 55.94581 | 36.95988 | 9904 ft | 273 kts | 326° |
| 2026-05-01 10:39 | 55.96159 | 36.94107 | 9974 ft | 273 kts | 326° |
| 2026-05-01 10:40 | 55.97717 | 36.92238 | 9983 ft | 272 kts | 326° |
| 2026-05-01 10:40 | 55.99354 | 36.90505 | 9987 ft | 273 kts | 333° |
| 2026-05-01 10:40 | 56.01077 | 36.89181 | 9992 ft | 274 kts | 339° |
| 2026-05-01 10:40 | 56.02903 | 36.88066 | 10234 ft | 283 kts | 341° |
| 2026-05-01 10:41 | 56.04730 | 36.86994 | 10603 ft | 297 kts | 341° |
| 2026-05-01 10:41 | 56.06706 | 36.85819 | 11203 ft | 302 kts | 338° |
| 2026-05-01 10:41 | 56.10272 | 36.81981 | 12505 ft | 306 kts | 317° |
| 2026-05-01 10:42 | 56.11859 | 36.79390 | 13178 ft | 309 kts | 316° |
| 2026-05-01 10:42 | 56.13425 | 36.76745 | 13825 ft | 311 kts | 315° |
| 2026-05-01 10:42 | 56.14980 | 36.74113 | 14447 ft | 314 kts | 316° |
| 2026-05-01 10:42 | 56.16581 | 36.71411 | 15071 ft | 317 kts | 316° |
| 2026-05-01 10:43 | 56.18193 | 36.68698 | 15676 ft | 320 kts | 316° |
| 2026-05-01 10:43 | 56.19810 | 36.65979 | 16058 ft | 322 kts | 316° |
| 2026-05-01 10:43 | 56.21447 | 36.63229 | 16164 ft | 322 kts | 316° |
| 2026-05-01 10:43 | 56.23076 | 36.60489 | 16184 ft | 326 kts | 316° |
| 2026-05-01 10:44 | 56.24753 | 36.57661 | 16536 ft | 333 kts | 316° |
| 2026-05-01 10:44 | 56.26429 | 36.54830 | 17190 ft | 333 kts | 316° |
| 2026-05-01 10:44 | 56.28124 | 36.51965 | 17782 ft | 335 kts | 316° |
| 2026-05-01 10:44 | 56.29812 | 36.49104 | 18322 ft | 337 kts | 316° |
| 2026-05-01 10:45 | 56.31504 | 36.46231 | 18844 ft | 340 kts | 316° |
| 2026-05-01 10:45 | 56.33234 | 36.43294 | 19364 ft | 343 kts | 316° |
| 2026-05-01 10:45 | 56.34912 | 36.40242 | 19869 ft | 345 kts | 310° |
| 2026-05-01 10:45 | 56.36317 | 36.36709 | 20375 ft | 347 kts | 301° |
| 2026-05-01 10:46 | 56.37371 | 36.32809 | 20862 ft | 350 kts | 292° |
| 2026-05-01 10:46 | 56.38260 | 36.28705 | 21350 ft | 353 kts | 291° |
| 2026-05-01 10:46 | 56.39125 | 36.24550 | 21819 ft | 356 kts | 291° |
| 2026-05-01 10:46 | 56.40000 | 36.20347 | 22260 ft | 359 kts | 291° |
| 2026-05-01 10:47 | 56.40881 | 36.16141 | 22708 ft | 362 kts | 291° |
| 2026-05-01 10:47 | 56.41777 | 36.11869 | 23166 ft | 365 kts | 291° |
| 2026-05-01 10:47 | 56.42677 | 36.07585 | 23601 ft | 367 kts | 291° |
| 2026-05-01 10:47 | 56.43577 | 36.03302 | 24025 ft | 370 kts | 292° |
| 2026-05-01 10:48 | 56.44585 | 35.98988 | 24447 ft | 372 kts | 297° |
| 2026-05-01 10:48 | 56.45843 | 35.94935 | 24861 ft | 374 kts | 303° |
| 2026-05-01 10:48 | 56.47371 | 35.91116 | 25275 ft | 376 kts | 309° |
| 2026-05-01 10:48 | 56.49032 | 35.87460 | 25677 ft | 378 kts | 310° |
| 2026-05-01 10:49 | 56.50707 | 35.83852 | 26060 ft | 380 kts | 310° |
| 2026-05-01 10:49 | 56.52422 | 35.80155 | 26431 ft | 383 kts | 310° |
| 2026-05-01 10:49 | 56.54131 | 35.76450 | 26808 ft | 385 kts | 310° |
| 2026-05-01 10:49 | 56.55848 | 35.72716 | 27171 ft | 387 kts | 310° |
| 2026-05-01 10:50 | 56.57556 | 35.68989 | 27526 ft | 390 kts | 310° |
| 2026-05-01 10:50 | 56.59292 | 35.65191 | 27876 ft | 392 kts | 310° |
| 2026-05-01 10:50 | 56.61023 | 35.61411 | 28210 ft | 394 kts | 310° |
| 2026-05-01 10:50 | 56.62767 | 35.57605 | 28553 ft | 396 kts | 310° |
| 2026-05-01 10:51 | 56.64536 | 35.53737 | 28876 ft | 398 kts | 310° |
| 2026-05-01 10:51 | 56.66309 | 35.49847 | 29187 ft | 400 kts | 310° |
| 2026-05-01 10:51 | 56.68068 | 35.45979 | 29504 ft | 402 kts | 310° |
| 2026-05-01 10:51 | 56.69861 | 35.42042 | 29811 ft | 404 kts | 311° |
| 2026-05-01 10:52 | 56.71633 | 35.38139 | 30095 ft | 406 kts | 310° |
| 2026-05-01 10:52 | 56.73435 | 35.34164 | 30381 ft | 408 kts | 310° |
| 2026-05-01 10:52 | 56.75243 | 35.30157 | 30655 ft | 410 kts | 310° |
| 2026-05-01 10:52 | 56.77052 | 35.26129 | 30937 ft | 412 kts | 310° |
| 2026-05-01 10:53 | 56.78851 | 35.22117 | 31193 ft | 414 kts | 310° |
| 2026-05-01 10:53 | 56.80672 | 35.18050 | 31480 ft | 415 kts | 310° |
| 2026-05-01 10:53 | 56.82545 | 35.14072 | 31840 ft | 413 kts | 316° |
| 2026-05-01 10:53 | 56.84705 | 35.10733 | 32192 ft | 411 kts | 325° |
| 2026-05-01 10:54 | 56.87143 | 35.08065 | 32528 ft | 410 kts | 334° |
| 2026-05-01 10:54 | 56.89789 | 35.06115 | 32850 ft | 410 kts | 342° |
| 2026-05-01 10:54 | 56.92576 | 35.04931 | 33116 ft | 412 kts | 350° |
| 2026-05-01 10:55 | 56.98271 | 35.04995 | 33161 ft | 415 kts | 7° |
| 2026-05-01 10:55 | 57.03743 | 35.08334 | 33173 ft | 424 kts | 24° |
| 2026-05-01 10:56 | 57.08524 | 35.14880 | 33173 ft | 443 kts | 43° |
| 2026-05-01 10:56 | 57.12055 | 35.24356 | 32484 ft | 455 kts | 63° |
| 2026-05-01 10:56 | 57.13103 | 35.29800 | 31872 ft | 457 kts | 73° |
| 2026-05-01 10:57 | 57.13624 | 35.35542 | 31249 ft | 458 kts | 84° |
| 2026-05-01 10:57 | 57.13589 | 35.41396 | 30800 ft | 453 kts | 95° |
| 2026-05-01 10:57 | 57.13020 | 35.47062 | 30381 ft | 448 kts | 105° |
| 2026-05-01 10:57 | 57.11960 | 35.52366 | 29971 ft | 441 kts | 115° |
| 2026-05-01 10:58 | 57.10543 | 35.57283 | 29582 ft | 435 kts | 119° |
| 2026-05-01 10:58 | 57.09054 | 35.62028 | 29131 ft | 431 kts | 120° |
| 2026-05-01 10:58 | 57.07540 | 35.66801 | 28635 ft | 427 kts | 120° |
| 2026-05-01 10:58 | 57.06064 | 35.71492 | 28145 ft | 424 kts | 120° |
| 2026-05-01 10:59 | 57.04615 | 35.76143 | 27594 ft | 415 kts | 120° |
| 2026-05-01 10:59 | 57.03199 | 35.80704 | 26644 ft | 413 kts | 120° |
| 2026-05-01 10:59 | 57.01779 | 35.85283 | 25505 ft | 420 kts | 119° |
| 2026-05-01 10:59 | 57.00365 | 35.89842 | 25054 ft | 413 kts | 119° |
| 2026-05-01 11:00 | 56.98946 | 35.94409 | 24683 ft | 406 kts | 119° |
| 2026-05-01 11:00 | 56.97567 | 35.98845 | 24223 ft | 397 kts | 119° |
| 2026-05-01 11:00 | 56.96221 | 36.03167 | 23802 ft | 393 kts | 119° |
| 2026-05-01 11:00 | 56.94869 | 36.07498 | 23388 ft | 389 kts | 119° |
| 2026-05-01 11:01 | 56.93549 | 36.11724 | 22987 ft | 380 kts | 119° |
| 2026-05-01 11:01 | 56.92250 | 36.15872 | 22592 ft | 376 kts | 119° |
| 2026-05-01 11:01 | 56.90947 | 36.20028 | 22197 ft | 369 kts | 119° |
| 2026-05-01 11:01 | 56.89678 | 36.24065 | 21806 ft | 365 kts | 119° |
| 2026-05-01 11:02 | 56.88426 | 36.28005 | 21429 ft | 361 kts | 120° |
| 2026-05-01 11:02 | 56.87164 | 36.31965 | 21047 ft | 359 kts | 120° |
| 2026-05-01 11:02 | 56.85915 | 36.35889 | 20667 ft | 356 kts | 120° |
| 2026-05-01 11:02 | 56.84678 | 36.39787 | 20287 ft | 354 kts | 120° |
| 2026-05-01 11:03 | 56.83460 | 36.43620 | 19912 ft | 351 kts | 120° |
| 2026-05-01 11:03 | 56.82238 | 36.47469 | 19536 ft | 349 kts | 120° |
| 2026-05-01 11:03 | 56.81030 | 36.51266 | 19164 ft | 347 kts | 120° |
| 2026-05-01 11:03 | 56.79821 | 36.55065 | 18791 ft | 344 kts | 120° |
| 2026-05-01 11:04 | 56.78631 | 36.58799 | 18423 ft | 342 kts | 120° |
| 2026-05-01 11:04 | 56.77433 | 36.62555 | 18051 ft | 340 kts | 120° |
| 2026-05-01 11:04 | 56.76241 | 36.66284 | 17680 ft | 338 kts | 120° |
| 2026-05-01 11:04 | 56.75073 | 36.69944 | 17317 ft | 336 kts | 120° |
| 2026-05-01 11:05 | 56.73902 | 36.73605 | 16952 ft | 333 kts | 121° |
| 2026-05-01 11:05 | 56.72738 | 36.77229 | 16590 ft | 331 kts | 121° |
| 2026-05-01 11:05 | 56.71569 | 36.80862 | 16225 ft | 329 kts | 121° |
| 2026-05-01 11:05 | 56.70292 | 36.84233 | 16056 ft | 327 kts | 131° |
| 2026-05-01 11:06 | 56.68747 | 36.87285 | 16060 ft | 328 kts | 135° |
| 2026-05-01 11:06 | 56.67156 | 36.90214 | 15717 ft | 328 kts | 136° |
| 2026-05-01 11:06 | 56.65532 | 36.93160 | 15347 ft | 327 kts | 136° |
| 2026-05-01 11:07 | 56.62364 | 36.98918 | 14625 ft | 323 kts | 136° |
| 2026-05-01 11:07 | 56.60778 | 37.01809 | 14262 ft | 321 kts | 136° |
| 2026-05-01 11:07 | 56.59205 | 37.04678 | 13902 ft | 319 kts | 135° |
| 2026-05-01 11:07 | 56.57657 | 37.07502 | 13547 ft | 317 kts | 135° |
| 2026-05-01 11:08 | 56.56100 | 37.10337 | 13189 ft | 315 kts | 135° |
| 2026-05-01 11:08 | 56.54572 | 37.13115 | 12838 ft | 313 kts | 135° |
| 2026-05-01 11:08 | 56.51325 | 37.18203 | 12114 ft | 308 kts | 154° |
| 2026-05-01 11:09 | 56.49342 | 37.19499 | 11804 ft | 302 kts | 167° |
| 2026-05-01 11:09 | 56.47298 | 37.20338 | 11449 ft | 300 kts | 169° |
| 2026-05-01 11:09 | 56.45272 | 37.21099 | 11103 ft | 298 kts | 169° |
| 2026-05-01 11:10 | 56.41255 | 37.22646 | 10419 ft | 294 kts | 168° |
| 2026-05-01 11:10 | 56.39256 | 37.23445 | 10080 ft | 292 kts | 168° |
| 2026-05-01 11:10 | 56.37278 | 37.24242 | 9746 ft | 291 kts | 168° |
| 2026-05-01 11:10 | 56.35337 | 37.25030 | 9417 ft | 289 kts | 167° |
| 2026-05-01 11:11 | 56.33389 | 37.25818 | 9087 ft | 287 kts | 167° |
| 2026-05-01 11:11 | 56.31435 | 37.26612 | 8756 ft | 285 kts | 167° |
| 2026-05-01 11:11 | 56.29522 | 37.27391 | 8432 ft | 283 kts | 167° |
| 2026-05-01 11:11 | 56.27607 | 37.28164 | 8107 ft | 282 kts | 167° |
| 2026-05-01 11:12 | 56.25691 | 37.28938 | 7781 ft | 280 kts | 166° |
| 2026-05-01 11:12 | 56.23838 | 37.29809 | 7458 ft | 278 kts | 164° |
| 2026-05-01 11:12 | 56.21987 | 37.30731 | 7280 ft | 270 kts | 163° |
| 2026-05-01 11:12 | 56.20219 | 37.31617 | 7217 ft | 257 kts | 163° |
| 2026-05-01 11:13 | 56.18559 | 37.32479 | 7167 ft | 248 kts | 158° |
| 2026-05-01 11:13 | 56.17161 | 37.34198 | 7160 ft | 245 kts | 123° |
| 2026-05-01 11:13 | 56.16563 | 37.37006 | 7163 ft | 240 kts | 90° |
| 2026-05-01 11:13 | 56.16814 | 37.39934 | 6879 ft | 237 kts | 71° |
| 2026-05-01 11:14 | 56.17294 | 37.42749 | 6583 ft | 235 kts | 71° |
| 2026-05-01 11:14 | 56.17759 | 37.45520 | 6295 ft | 233 kts | 71° |
| 2026-05-01 11:14 | 56.18211 | 37.48344 | 6012 ft | 233 kts | 72° |
| 2026-05-01 11:14 | 56.18640 | 37.51111 | 5737 ft | 231 kts | 72° |
| 2026-05-01 11:15 | 56.19058 | 37.53863 | 5465 ft | 229 kts | 72° |
| 2026-05-01 11:15 | 56.19446 | 37.56635 | 5175 ft | 229 kts | 80° |
| 2026-05-01 11:15 | 56.19233 | 37.59420 | 4895 ft | 230 kts | 116° |
| 2026-05-01 11:15 | 56.18241 | 37.61673 | 4931 ft | 233 kts | 132° |
| 2026-05-01 11:16 | 56.17072 | 37.63750 | 4955 ft | 234 kts | 133° |
| 2026-05-01 11:16 | 56.15918 | 37.65779 | 4972 ft | 234 kts | 134° |
| 2026-05-01 11:16 | 56.14772 | 37.67838 | 4977 ft | 234 kts | 133° |
| 2026-05-01 11:16 | 56.13620 | 37.69934 | 4901 ft | 236 kts | 133° |
| 2026-05-01 11:17 | 56.12469 | 37.72036 | 4592 ft | 235 kts | 133° |
| 2026-05-01 11:17 | 56.11344 | 37.74095 | 4305 ft | 233 kts | 133° |
| 2026-05-01 11:17 | 56.10209 | 37.76156 | 4036 ft | 230 kts | 136° |
| 2026-05-01 11:17 | 56.08854 | 37.77480 | 3907 ft | 222 kts | 173° |
| 2026-05-01 11:18 | 56.07361 | 37.77070 | 3951 ft | 217 kts | 198° |
| 2026-05-01 11:18 | 56.05943 | 37.76121 | 3970 ft | 217 kts | 200° |
| 2026-05-01 11:18 | 56.04553 | 37.75180 | 3877 ft | 208 kts | 199° |
| 2026-05-01 11:18 | 56.03224 | 37.74336 | 3631 ft | 200 kts | 198° |
| 2026-05-01 11:19 | 56.02088 | 37.73168 | 3598 ft | 178 kts | 228° |
| 2026-05-01 11:19 | 56.01526 | 37.71344 | 3582 ft | 163 kts | 252° |
| 2026-05-01 11:19 | 56.01237 | 37.69379 | 3446 ft | 162 kts | 260° |
| 2026-05-01 11:19 | 56.01016 | 37.67446 | 3239 ft | 160 kts | 259° |
| 2026-05-01 11:20 | 56.00769 | 37.65501 | 3027 ft | 159 kts | 258° |
| 2026-05-01 11:20 | 56.00499 | 37.63597 | 2814 ft | 158 kts | 256° |
| 2026-05-01 11:20 | 56.00211 | 37.61700 | 2606 ft | 158 kts | 256° |
| 2026-05-01 11:20 | 55.99924 | 37.59851 | 2388 ft | 150 kts | 254° |
| 2026-05-01 11:21 | 55.99645 | 37.58052 | 2188 ft | 149 kts | 255° |
| 2026-05-01 11:21 | 55.99373 | 37.56289 | 1995 ft | 148 kts | 255° |
| 2026-05-01 11:21 | 55.99105 | 37.54533 | 1802 ft | 147 kts | 254° |
| 2026-05-01 11:21 | 55.98835 | 37.52764 | 1607 ft | 147 kts | 254° |
| 2026-05-01 11:22 | 55.98576 | 37.51014 | 1414 ft | 146 kts | 255° |
| 2026-05-01 11:22 | 55.98304 | 37.49260 | 1238 ft | 146 kts | 255° |
| 2026-05-01 11:22 | 55.98034 | 37.47525 | 1030 ft | 145 kts | 255° |
| 2026-05-01 11:22 | 55.97772 | 37.45778 | 853 ft | 145 kts | 255° |
| 2026-05-01 11:23 | 55.97522 | 37.44051 | 674 ft | 144 kts | 254° |
| 2026-05-01 11:23 | 55.97276 | 37.42403 | 638 ft | 118 kts | 254° |
| 2026-05-01 11:23 | 55.97098 | 37.41222 | 638 ft | 82 kts | 255° |
| 2026-05-01 11:23 | 55.96975 | 37.40382 | 638 ft | 62 kts | 255° |
| 2026-05-01 11:24 | 55.96865 | 37.39653 | 638 ft | 58 kts | 255° |
| 2026-05-01 11:24 | 55.96785 | 37.39124 | 638 ft | 30 kts | 255° |
| 2026-05-01 11:24 | 55.96787 | 37.38806 | 638 ft | 8 kts | 333° |
| 2026-05-01 11:25 | 55.96842 | 37.38777 | 638 ft | 6 kts | 347° |
| 2026-05-01 11:25 | 55.96934 | 37.38735 | 638 ft | 7 kts | 345° |
| 2026-05-01 11:25 | 55.96988 | 37.38710 | 638 ft | 8 kts | 346° |
| 2026-05-01 11:26 | 55.97047 | 37.38682 | 638 ft | 9 kts | 346° |
| 2026-05-01 11:26 | 55.97124 | 37.38646 | 638 ft | 2 kts | 346° |
| 2026-05-01 11:26 | 55.97167 | 37.38624 | 638 ft | 11 kts | 345° |
| 2026-05-01 11:27 | 55.97225 | 37.38598 | 638 ft | 8 kts | 352° |
| 2026-05-01 11:27 | 55.97276 | 37.38650 | 638 ft | 9 kts | 64° |
| 2026-05-01 11:27 | 55.97297 | 37.38772 | 638 ft | 10 kts | 76° |
| 2026-05-01 11:27 | 55.97316 | 37.38904 | 638 ft | 11 kts | 76° |
| 2026-05-01 11:28 | 55.97337 | 37.39044 | 638 ft | 11 kts | 75° |
| 2026-05-01 11:28 | 55.97359 | 37.39188 | 638 ft | 12 kts | 76° |
| 2026-05-01 11:28 | 55.97380 | 37.39336 | 638 ft | 12 kts | 75° |
| 2026-05-01 11:29 | 55.97427 | 37.39645 | 638 ft | 13 kts | 76° |
| 2026-05-01 11:29 | 55.97451 | 37.39806 | 638 ft | 13 kts | 75° |
| 2026-05-01 11:29 | 55.97499 | 37.40132 | 638 ft | 13 kts | 76° |
| 2026-05-01 11:30 | 55.97524 | 37.40300 | 638 ft | 14 kts | 75° |
| 2026-05-01 11:30 | 55.97550 | 37.40470 | 638 ft | 14 kts | 75° |
| 2026-05-01 11:30 | 55.97575 | 37.40639 | 638 ft | 14 kts | 75° |
| 2026-05-01 11:30 | 55.97601 | 37.40812 | 638 ft | 14 kts | 75° |
| 2026-05-01 11:31 | 55.97626 | 37.40983 | 638 ft | 14 kts | 75° |
| 2026-05-01 11:31 | 55.97652 | 37.41158 | 638 ft | 14 kts | 76° |
| 2026-05-01 11:31 | 55.97678 | 37.41333 | 638 ft | 14 kts | 75° |
| 2026-05-01 11:31 | 55.97701 | 37.41497 | 638 ft | 10 kts | 85° |
| 2026-05-01 11:32 | 55.97701 | 37.41623 | 638 ft | 10 kts | 82° |
| 2026-05-01 11:32 | 55.97718 | 37.41751 | 638 ft | 6 kts | 75° |
| 2026-05-01 11:32 | 55.97731 | 37.41809 | 638 ft | 5 kts | 46° |
| 2026-05-01 11:32 | 55.97767 | 37.41820 | 638 ft | 5 kts | 352° |
| 2026-05-01 11:33 | 55.97792 | 37.41811 | 638 ft | 0 kts | 347° |